createdAt,value
2023-05-09T00:01:07.594Z,13.13
2023-05-09T00:03:34.187Z,13.07
2023-05-09T00:06:01.226Z,12.57
2023-05-09T00:08:27.912Z,13.50
2023-05-09T00:10:55.432Z,14.10
2023-05-09T00:13:22.027Z,12.67
2023-05-09T00:15:48.502Z,13.50
2023-05-09T00:18:15.176Z,13.80
2023-05-09T00:20:41.801Z,14.37
2023-05-09T00:23:08.225Z,13.87
2023-05-09T00:25:34.726Z,13.80
2023-05-09T00:28:01.333Z,13.17
2023-05-09T00:30:27.848Z,14.13
2023-05-09T00:32:54.340Z,15.00
2023-05-09T00:35:20.878Z,14.73
2023-05-09T00:37:47.347Z,13.97
2023-05-09T00:40:13.949Z,14.53
2023-05-09T00:42:40.853Z,15.10
2023-05-09T00:45:08.100Z,14.27
2023-05-09T00:47:35.021Z,15.00
2023-05-09T00:50:02.167Z,14.30
2023-05-09T00:52:28.621Z,13.57
2023-05-09T00:54:55.887Z,14.47
2023-05-09T00:57:23.269Z,13.87
2023-05-09T00:59:50.185Z,14.30
2023-05-09T01:02:20.029Z,14.67
2023-05-09T01:04:46.894Z,13.87
2023-05-09T01:07:41.174Z,14.93
2023-05-09T01:10:19.725Z,14.00
2023-05-09T01:13:06.400Z,13.67
2023-05-09T01:15:42.993Z,14.07
2023-05-09T01:18:21.735Z,13.30
2023-05-09T01:21:04.849Z,13.03
2023-05-09T01:23:44.142Z,13.43
2023-05-09T01:26:47.885Z,14.07
2023-05-09T01:29:44.883Z,13.40
2023-05-09T01:32:16.028Z,12.53
2023-05-09T01:34:45.062Z,14.50
2023-05-09T01:37:15.547Z,14.00
2023-05-09T01:39:49.457Z,13.60
2023-05-09T01:42:18.449Z,13.63
2023-05-09T01:44:47.007Z,13.93
2023-05-09T01:47:16.598Z,14.00
2023-05-09T01:49:44.618Z,13.90
2023-05-09T01:52:15.007Z,14.67
2023-05-09T01:54:43.959Z,13.57
2023-05-09T01:57:11.952Z,14.40
2023-05-09T01:59:44.586Z,14.17
2023-05-09T02:02:12.170Z,13.40
2023-05-09T02:04:41.559Z,14.37
2023-05-09T02:07:09.469Z,13.63
2023-05-09T02:09:36.030Z,13.83
2023-05-09T02:12:04.498Z,14.80
2023-05-09T02:14:31.812Z,14.30
2023-05-09T02:17:06.348Z,15.17
2023-05-09T02:19:35.296Z,14.57
2023-05-09T02:22:02.661Z,14.47
2023-05-09T02:24:29.298Z,14.40
2023-05-09T02:26:56.146Z,14.40
2023-05-09T02:29:29.958Z,15.20
2023-05-09T02:32:00.249Z,15.20
2023-05-09T02:34:26.944Z,14.50
2023-05-09T02:36:53.419Z,15.40
2023-05-09T02:39:20.043Z,14.40
2023-05-09T02:41:49.391Z,15.20
2023-05-09T02:44:15.841Z,14.90
2023-05-09T02:46:42.264Z,14.80
2023-05-09T02:49:10.113Z,14.60
2023-05-09T02:51:36.745Z,14.63
2023-05-09T02:54:03.442Z,14.83
2023-05-09T02:56:29.864Z,15.47
2023-05-09T02:58:56.319Z,15.03
2023-05-09T03:01:22.980Z,14.70
2023-05-09T03:03:49.575Z,15.40
2023-05-09T03:06:16.106Z,14.90
2023-05-09T03:08:42.565Z,15.30
2023-05-09T03:11:09.054Z,15.67
2023-05-09T03:13:35.456Z,15.03
2023-05-09T03:16:01.939Z,14.40
2023-05-09T03:18:28.351Z,14.93
2023-05-09T03:20:54.776Z,15.20
2023-05-09T03:23:21.542Z,15.57
2023-05-09T03:25:47.909Z,14.97
2023-05-09T03:28:14.482Z,15.00
2023-05-09T03:30:41.069Z,15.73
2023-05-09T03:33:07.808Z,14.83
2023-05-09T03:35:34.199Z,15.00
2023-05-09T03:38:00.605Z,15.50
2023-05-09T03:40:27.195Z,15.43
2023-05-09T03:42:53.607Z,15.33
2023-05-09T03:45:20.070Z,15.33
2023-05-09T03:47:46.678Z,15.37
2023-05-09T03:50:13.117Z,14.87
2023-05-09T03:52:39.633Z,14.90
2023-05-09T03:55:06.567Z,14.83
2023-05-09T03:57:34.863Z,15.43
2023-05-09T04:00:01.791Z,14.93
2023-05-09T04:02:28.296Z,15.20
2023-05-09T04:04:54.937Z,15.00
2023-05-09T04:07:21.865Z,15.43
2023-05-09T04:09:49.491Z,15.43
2023-05-09T04:12:16.043Z,15.53
2023-05-09T04:14:43.253Z,15.40
2023-05-09T04:17:09.799Z,16.60
2023-05-09T04:19:36.389Z,15.47
2023-05-09T04:22:02.785Z,15.13
2023-05-09T04:24:29.181Z,15.70
2023-05-09T04:26:55.728Z,15.43
2023-05-09T04:29:22.252Z,14.80
2023-05-09T04:31:48.713Z,15.27
2023-05-09T04:34:15.420Z,15.70
2023-05-09T04:36:41.857Z,15.53
2023-05-09T04:39:08.703Z,15.53
2023-05-09T04:41:35.092Z,15.83
2023-05-09T04:44:02.074Z,16.10
2023-05-09T04:46:28.597Z,16.30
2023-05-09T04:48:55.441Z,16.20
2023-05-09T04:51:22.087Z,15.93
2023-05-09T04:53:48.455Z,16.37
2023-05-09T04:56:15.248Z,15.90
2023-05-09T04:58:41.699Z,15.93
2023-05-09T05:01:08.145Z,15.83
2023-05-09T05:03:34.561Z,16.20
2023-05-09T05:06:01.078Z,15.63
2023-05-09T05:08:27.408Z,16.10
2023-05-09T05:10:53.975Z,15.57
2023-05-09T05:13:21.644Z,16.47
2023-05-09T05:15:48.318Z,16.17
2023-05-09T05:18:14.770Z,15.63
2023-05-09T05:20:42.142Z,14.77
2023-05-09T05:23:09.467Z,14.20
2023-05-09T05:25:36.203Z,13.63
2023-05-09T05:28:02.739Z,14.70
2023-05-09T05:30:29.381Z,14.93
2023-05-09T05:32:55.940Z,14.33
2023-05-09T05:35:23.388Z,13.63
2023-05-09T05:37:49.952Z,14.57
2023-05-09T05:40:16.437Z,15.00
2023-05-09T05:42:44.237Z,14.47
2023-05-09T05:45:11.064Z,15.57
2023-05-09T05:47:37.772Z,14.70
2023-05-09T05:50:06.917Z,14.30
2023-05-09T05:52:33.631Z,14.77
2023-05-09T05:55:00.196Z,15.17
2023-05-09T05:57:26.594Z,15.47
2023-05-09T05:59:52.997Z,13.83
2023-05-09T06:02:19.498Z,14.00
2023-05-09T06:04:45.869Z,14.13
2023-05-09T06:07:13.833Z,13.90
2023-05-09T06:09:40.356Z,14.07
2023-05-09T06:12:07.270Z,13.13
2023-05-09T06:14:33.718Z,13.87
2023-05-09T06:17:00.672Z,13.60
2023-05-09T06:19:27.991Z,13.53
2023-05-09T06:21:54.332Z,13.83
2023-05-09T06:24:34.553Z,12.87
2023-05-09T06:27:02.640Z,13.43
2023-05-09T06:29:29.027Z,13.30
2023-05-09T06:31:55.408Z,13.37
2023-05-09T06:34:21.877Z,12.77
2023-05-09T06:36:48.383Z,13.20
2023-05-09T06:39:14.751Z,13.10
2023-05-09T06:41:41.141Z,12.83
2023-05-09T06:44:07.523Z,12.77
2023-05-09T06:46:33.939Z,12.53
2023-05-09T06:49:01.889Z,11.97
2023-05-09T06:51:28.893Z,11.87
2023-05-09T06:53:55.317Z,10.87
2023-05-09T06:56:22.722Z,11.93
2023-05-09T06:58:49.545Z,13.27
2023-05-09T07:01:15.976Z,11.20
2023-05-09T07:03:42.406Z,11.80
2023-05-09T07:06:09.016Z,11.20
2023-05-09T07:08:38.797Z,11.93
2023-05-09T07:11:05.462Z,12.53
2023-05-09T07:13:32.047Z,11.90
2023-05-09T07:15:58.847Z,11.67
2023-05-09T07:18:25.247Z,11.00
2023-05-09T07:20:51.742Z,10.97
2023-05-09T07:23:18.356Z,11.37
2023-05-09T07:25:45.359Z,10.93
2023-05-09T07:28:13.029Z,9.97
2023-05-09T07:30:39.426Z,10.43
2023-05-09T07:33:06.650Z,9.30
2023-05-09T07:35:33.296Z,9.23
2023-05-09T07:37:59.737Z,9.60
2023-05-09T07:40:26.197Z,8.93
2023-05-09T07:42:55.172Z,9.13
2023-05-09T07:45:23.710Z,8.60
2023-05-09T07:47:50.860Z,7.40
2023-05-09T07:50:17.353Z,7.20
2023-05-09T07:52:43.782Z,6.40
2023-05-09T07:55:10.471Z,5.87
2023-05-09T07:57:36.961Z,5.83
2023-05-09T08:00:03.613Z,5.63
2023-05-09T08:02:30.143Z,6.03
2023-05-09T08:04:56.588Z,5.93
2023-05-09T08:07:23.030Z,5.70
2023-05-09T08:09:49.525Z,5.70
2023-05-09T08:12:15.928Z,5.10
2023-05-09T08:14:42.295Z,5.13
2023-05-09T08:17:08.823Z,4.93
2023-05-09T08:19:35.324Z,4.73
2023-05-09T08:22:01.851Z,5.20
2023-05-09T08:24:28.448Z,4.23
2023-05-09T08:26:54.860Z,5.20
2023-05-09T08:29:21.266Z,4.80
2023-05-09T08:31:47.837Z,4.83
2023-05-09T08:34:14.198Z,5.03
2023-05-09T08:36:41.140Z,3.90
2023-05-09T08:39:08.823Z,3.37
2023-05-09T08:41:36.105Z,3.30
2023-05-09T08:44:03.334Z,3.43
2023-05-09T08:46:39.034Z,3.20
2023-05-09T08:49:09.084Z,2.87
2023-05-09T08:51:35.848Z,2.37
2023-05-09T08:54:02.784Z,2.23
2023-05-09T08:56:30.626Z,2.57
2023-05-09T08:58:57.263Z,2.77
2023-05-09T09:01:26.730Z,2.17
2023-05-09T09:03:53.697Z,2.10
2023-05-09T09:06:21.876Z,2.33
2023-05-09T09:08:49.204Z,2.00
2023-05-09T09:11:17.111Z,2.20
2023-05-09T09:13:44.146Z,1.70
2023-05-09T09:16:18.114Z,1.90
2023-05-09T09:18:44.874Z,2.03
2023-05-09T09:21:14.209Z,2.00
2023-05-09T09:23:43.077Z,1.90
2023-05-09T09:26:09.614Z,1.70
2023-05-09T09:28:36.142Z,1.87
2023-05-09T09:31:02.578Z,1.83
2023-05-09T09:33:29.450Z,2.90
2023-05-09T09:35:57.197Z,3.37
2023-05-09T09:38:26.826Z,2.90
2023-05-09T09:40:57.246Z,3.20
2023-05-09T09:43:31.260Z,2.97
2023-05-09T09:46:01.243Z,2.97
2023-05-09T09:48:32.285Z,2.80
2023-05-09T09:51:04.078Z,2.80
2023-05-09T09:53:30.895Z,2.70
2023-05-09T09:55:57.520Z,2.70
2023-05-09T09:58:26.576Z,2.60
2023-05-09T10:01:14.175Z,3.00
2023-05-09T10:03:43.198Z,2.80
2023-05-09T10:06:14.523Z,2.90
2023-05-09T10:08:41.935Z,2.90
2023-05-09T10:11:09.406Z,2.80
2023-05-09T10:13:37.474Z,3.10
2023-05-09T10:16:05.439Z,2.90
2023-05-09T10:18:33.750Z,3.10
2023-05-09T10:21:06.616Z,3.20
2023-05-09T10:23:36.955Z,2.67
2023-05-09T10:26:12.224Z,3.00
2023-05-09T10:28:41.941Z,3.30
2023-05-09T10:31:32.601Z,3.00
2023-05-09T10:34:01.755Z,3.00
2023-05-09T10:36:28.428Z,3.00
2023-05-09T10:38:55.544Z,3.40
2023-05-09T10:41:23.550Z,2.90
2023-05-09T10:43:50.219Z,2.87
2023-05-09T10:46:17.731Z,3.00
2023-05-09T10:48:45.423Z,2.40
2023-05-09T10:51:12.784Z,2.70
2023-05-09T10:53:46.545Z,2.07
2023-05-09T10:56:40.461Z,2.20
2023-05-09T10:59:27.003Z,1.90
2023-05-09T11:02:00.886Z,2.00
2023-05-09T11:04:27.441Z,1.97
2023-05-09T11:06:55.760Z,2.20
2023-05-09T11:09:38.888Z,2.30
2023-05-09T11:12:05.383Z,2.00
2023-05-09T11:14:41.424Z,2.53
2023-05-09T11:17:13.097Z,2.13
2023-05-09T11:19:45.903Z,2.40
2023-05-09T11:22:27.854Z,2.20
2023-05-09T11:25:10.327Z,2.28
2023-05-09T11:27:48.673Z,2.40
2023-05-09T11:30:17.626Z,2.27
2023-05-09T11:32:58.943Z,2.50
2023-05-09T11:35:27.284Z,2.50
2023-05-09T11:38:00.738Z,2.35
2023-05-09T11:40:28.825Z,2.33
2023-05-09T11:42:58.399Z,2.10
2023-05-09T11:45:30.204Z,2.38
2023-05-09T11:48:00.445Z,2.40
2023-05-09T11:50:27.230Z,2.30
2023-05-09T11:52:54.276Z,2.53
2023-05-09T11:55:22.810Z,2.30
2023-05-09T11:57:51.662Z,2.15
2023-05-09T12:00:20.528Z,2.30
2023-05-09T12:02:48.110Z,2.40
2023-05-09T12:05:17.425Z,2.33
2023-05-09T12:07:44.637Z,2.22
2023-05-09T12:10:13.697Z,2.38
2023-05-09T12:12:45.485Z,2.60
2023-05-09T12:15:13.723Z,2.70
2023-05-09T12:17:42.955Z,2.40
2023-05-09T12:20:10.271Z,2.88
2023-05-09T12:22:39.950Z,2.40
2023-05-09T12:25:09.580Z,2.58
2023-05-09T12:27:38.191Z,2.60
2023-05-09T12:30:08.635Z,2.33
2023-05-09T12:32:36.682Z,2.83
2023-05-09T12:35:03.691Z,2.72
2023-05-09T12:37:34.711Z,2.25
2023-05-09T12:40:06.510Z,2.78
2023-05-09T12:42:34.413Z,2.25
2023-05-09T12:45:03.206Z,2.30
2023-05-09T12:47:31.422Z,2.00
2023-05-09T12:49:59.182Z,2.20
2023-05-09T12:52:26.073Z,2.40
2023-05-09T12:54:53.753Z,2.00
2023-05-09T12:57:24.502Z,3.10
2023-05-09T12:59:51.010Z,2.00
2023-05-09T13:02:18.055Z,2.40
2023-05-09T13:04:44.631Z,2.25
2023-05-09T13:07:11.028Z,2.15
2023-05-09T13:09:54.659Z,1.70
2023-05-09T13:12:21.089Z,1.92
2023-05-09T13:14:47.532Z,2.10
2023-05-09T13:17:14.059Z,2.10
2023-05-09T13:19:40.488Z,2.03
2023-05-09T13:22:06.844Z,1.97
2023-05-09T13:24:33.391Z,1.77
2023-05-09T13:26:59.758Z,1.70
2023-05-09T13:29:26.259Z,2.20
2023-05-09T13:31:52.756Z,2.13
2023-05-09T13:34:19.108Z,2.08
2023-05-09T13:36:45.591Z,2.20
2023-05-09T13:39:12.051Z,2.00
2023-05-09T13:41:38.469Z,2.30
2023-05-09T13:44:04.797Z,2.13
2023-05-09T13:46:31.375Z,2.20
2023-05-09T13:48:57.765Z,1.98
2023-05-09T13:51:24.257Z,2.10
2023-05-09T13:53:50.719Z,1.97
2023-05-09T13:56:17.236Z,1.83
2023-05-09T13:58:43.619Z,1.70
2023-05-09T14:01:10.292Z,2.42
2023-05-09T14:03:36.767Z,1.70
2023-05-09T14:06:04.232Z,1.80
2023-05-09T14:08:30.876Z,1.80
2023-05-09T14:10:57.271Z,1.90
2023-05-09T14:13:23.896Z,2.08
2023-05-09T14:15:50.527Z,1.83
2023-05-09T14:18:20.115Z,2.00
2023-05-09T14:20:47.515Z,1.67
2023-05-09T14:23:13.949Z,2.13
2023-05-09T14:25:40.299Z,2.00
2023-05-09T14:28:09.379Z,1.73
2023-05-09T14:30:36.269Z,1.80
2023-05-09T14:33:02.835Z,1.63
2023-05-09T14:35:32.201Z,1.85
2023-05-09T14:37:58.569Z,1.83
2023-05-09T14:40:24.986Z,2.25
2023-05-09T14:42:51.551Z,1.73
2023-05-09T14:45:17.931Z,4.97
2023-05-09T14:47:44.348Z,6.10
2023-05-09T14:50:15.907Z,6.20
2023-05-09T14:52:43.855Z,6.10
2023-05-09T14:55:10.267Z,5.03
2023-05-09T14:57:36.921Z,4.43
2023-05-09T15:00:16.673Z,3.30
2023-05-09T15:02:47.628Z,2.90
2023-05-09T15:05:14.120Z,2.97
2023-05-09T15:07:40.473Z,3.00
2023-05-09T15:10:07.416Z,3.10
2023-05-09T15:12:33.841Z,3.20
2023-05-09T15:15:17.711Z,3.30
2023-05-09T15:17:44.945Z,3.83
2023-05-09T15:20:12.332Z,3.30
2023-05-09T15:22:38.734Z,3.70
2023-05-09T15:25:06.328Z,3.20
2023-05-09T15:27:32.984Z,3.63
2023-05-09T15:29:59.591Z,4.20
2023-05-09T15:32:26.989Z,3.27
2023-05-09T15:34:53.391Z,3.77
2023-05-09T15:37:19.919Z,3.90
2023-05-09T15:39:46.583Z,4.43
2023-05-09T15:42:13.451Z,4.03
2023-05-09T15:44:41.204Z,4.37
2023-05-09T15:47:08.203Z,4.27
2023-05-09T15:49:35.577Z,4.30
2023-05-09T15:52:06.599Z,4.40
2023-05-09T15:54:34.288Z,5.00
2023-05-09T15:57:00.870Z,4.10
2023-05-09T15:59:27.635Z,4.20
2023-05-09T16:01:54.650Z,4.80
2023-05-09T16:04:21.641Z,4.17
2023-05-09T16:06:49.056Z,4.40
2023-05-09T16:09:15.644Z,4.43
2023-05-09T16:11:42.140Z,4.60
2023-05-09T16:14:12.955Z,5.30
2023-05-09T16:16:40.309Z,5.47
2023-05-09T16:19:07.114Z,5.20
2023-05-09T16:21:33.623Z,5.60
2023-05-09T16:24:03.099Z,5.83
2023-05-09T16:26:29.606Z,5.57
2023-05-09T16:28:56.260Z,5.93
2023-05-09T16:31:26.369Z,5.90
2023-05-09T16:33:54.135Z,6.47
2023-05-09T16:36:21.323Z,6.30
2023-05-09T16:38:47.739Z,5.47
2023-05-09T16:41:14.250Z,5.80
2023-05-09T16:43:40.836Z,6.63
2023-05-09T16:46:07.300Z,7.10
2023-05-09T16:48:33.786Z,6.63
2023-05-09T16:51:00.250Z,7.67
2023-05-09T16:53:27.791Z,6.47
2023-05-09T16:55:54.753Z,7.60
2023-05-09T16:58:21.253Z,7.07
2023-05-09T17:00:47.809Z,7.77
2023-05-09T17:03:14.271Z,7.90
2023-05-09T17:05:40.780Z,9.70
2023-05-09T17:08:07.680Z,10.80
2023-05-09T17:10:35.788Z,11.57
2023-05-09T17:13:08.740Z,9.13
2023-05-09T17:15:35.646Z,10.20
2023-05-09T17:18:03.036Z,8.47
2023-05-09T17:20:29.813Z,7.83
2023-05-09T17:22:56.815Z,7.90
2023-05-09T17:25:23.603Z,6.90
2023-05-09T17:27:49.995Z,7.20
2023-05-09T17:30:16.785Z,6.90
2023-05-09T17:32:43.723Z,7.00
2023-05-09T17:35:10.595Z,7.30
2023-05-09T17:37:37.100Z,7.07
2023-05-09T17:40:05.091Z,7.13
2023-05-09T17:42:32.095Z,6.90
2023-05-09T17:44:58.719Z,6.70
2023-05-09T17:47:25.324Z,6.70
2023-05-09T17:49:52.083Z,6.90
2023-05-09T17:52:18.641Z,7.03
2023-05-09T17:54:45.232Z,7.10
2023-05-09T17:57:11.753Z,6.80
2023-05-09T17:59:40.608Z,7.07
2023-05-09T18:02:07.986Z,6.70
2023-05-09T18:04:34.671Z,6.20
2023-05-09T18:07:01.551Z,6.73
2023-05-09T18:09:28.603Z,7.40
2023-05-09T18:11:55.170Z,7.20
2023-05-09T18:14:21.696Z,6.97
2023-05-09T18:16:48.258Z,7.60
2023-05-09T18:19:14.646Z,8.53
2023-05-09T18:21:41.498Z,8.13
2023-05-09T18:24:09.223Z,7.77
2023-05-09T18:26:35.659Z,8.00
2023-05-09T18:29:02.115Z,8.30
2023-05-09T18:31:28.682Z,7.30
2023-05-09T18:33:55.404Z,8.20
2023-05-09T18:36:22.016Z,8.07
2023-05-09T18:38:48.650Z,8.07
2023-05-09T18:41:15.846Z,7.97
2023-05-09T18:43:46.470Z,8.17
2023-05-09T18:46:17.301Z,7.60
2023-05-09T18:48:45.314Z,7.97
2023-05-09T18:51:12.217Z,4.30
2023-05-09T18:53:38.840Z,2.33
2023-05-09T18:56:05.415Z,1.80
2023-05-09T18:58:32.407Z,1.63
2023-05-09T19:00:58.997Z,1.90
2023-05-09T19:03:25.530Z,1.70
2023-05-09T19:05:51.903Z,2.20
2023-05-09T19:08:18.432Z,2.67
2023-05-09T19:10:44.986Z,2.20
2023-05-09T19:13:12.409Z,3.10
2023-05-09T19:15:40.447Z,2.50
2023-05-09T19:18:07.180Z,2.57
2023-05-09T19:20:33.652Z,2.43
2023-05-09T19:23:01.095Z,1.83
2023-05-09T19:25:30.340Z,2.50
2023-05-09T19:27:56.747Z,2.33
2023-05-09T19:30:23.121Z,2.27
2023-05-09T19:32:49.638Z,1.70
2023-05-09T19:35:16.142Z,1.70
2023-05-09T19:37:42.615Z,1.30
2023-05-09T19:40:09.420Z,1.57
2023-05-09T19:42:36.364Z,1.20
2023-05-09T19:45:03.476Z,1.57
2023-05-09T19:47:30.109Z,1.13
2023-05-09T19:49:56.521Z,1.20
2023-05-09T19:52:23.389Z,1.50
2023-05-09T19:54:50.397Z,1.00
2023-05-09T19:57:16.992Z,1.30
2023-05-09T19:59:43.523Z,1.97
2023-05-09T20:02:10.023Z,1.30
2023-05-09T20:04:37.412Z,1.30
2023-05-09T20:07:05.002Z,1.60
2023-05-09T20:09:32.925Z,1.23
2023-05-09T20:12:01.840Z,1.40
2023-05-09T20:14:28.207Z,1.47
2023-05-09T20:16:54.636Z,1.10
2023-05-09T20:19:21.175Z,1.20
2023-05-09T20:21:47.589Z,1.40
2023-05-09T20:24:13.998Z,1.10
2023-05-09T20:26:40.479Z,1.20
2023-05-09T20:29:06.982Z,1.00
2023-05-09T20:31:34.363Z,1.00
2023-05-09T20:34:01.643Z,1.10
2023-05-09T20:36:28.682Z,1.10
2023-05-09T20:38:57.273Z,1.00
2023-05-09T20:41:24.138Z,1.00
2023-05-09T20:43:50.675Z,1.00
2023-05-09T20:46:17.371Z,1.10
2023-05-09T20:48:44.436Z,1.10
2023-05-09T20:51:10.853Z,1.10
2023-05-09T20:53:37.772Z,1.10
2023-05-09T20:56:05.006Z,1.10
2023-05-09T20:58:32.698Z,1.20
2023-05-09T21:00:59.266Z,1.50
2023-05-09T21:03:26.007Z,1.73
2023-05-09T21:05:52.538Z,1.30
2023-05-09T21:08:19.341Z,1.30
2023-05-09T21:10:45.934Z,1.40
2023-05-09T21:13:12.445Z,1.60
2023-05-09T21:15:38.918Z,1.60
2023-05-09T21:18:05.441Z,1.50
2023-05-09T21:20:31.879Z,1.70
2023-05-09T21:22:58.419Z,1.47
2023-05-09T21:25:24.888Z,1.70
2023-05-09T21:27:51.343Z,1.80
2023-05-09T21:30:17.964Z,2.00
2023-05-09T21:32:44.440Z,2.20
2023-05-09T21:35:13.023Z,2.67
2023-05-09T21:37:39.693Z,2.47
2023-05-09T21:40:07.039Z,2.83
2023-05-09T21:42:34.978Z,2.70
2023-05-09T21:45:01.494Z,2.60
2023-05-09T21:47:28.655Z,2.80
2023-05-09T21:49:55.498Z,3.13
2023-05-09T21:52:23.515Z,3.07
2023-05-09T21:54:50.261Z,3.10
2023-05-09T21:57:16.877Z,3.23
2023-05-09T21:59:43.361Z,3.13
2023-05-09T22:02:09.887Z,3.50
2023-05-09T22:04:36.446Z,3.30
2023-05-09T22:07:02.949Z,3.60
2023-05-09T22:09:29.807Z,3.67
2023-05-09T22:11:56.322Z,3.40
2023-05-09T22:14:22.744Z,3.50
2023-05-09T22:16:49.201Z,3.03
2023-05-09T22:19:15.943Z,3.70
2023-05-09T22:21:42.284Z,3.50
2023-05-09T22:24:08.728Z,4.27
2023-05-09T22:26:35.331Z,3.83
2023-05-09T22:29:01.788Z,3.87
2023-05-09T22:31:28.376Z,3.70
2023-05-09T22:33:54.751Z,3.90
2023-05-09T22:36:21.752Z,4.43
2023-05-09T22:38:48.237Z,4.27
2023-05-09T22:41:14.722Z,4.10
2023-05-09T22:43:41.522Z,4.20
2023-05-09T22:46:08.185Z,4.83
2023-05-09T22:48:34.756Z,5.03
2023-05-09T22:51:01.199Z,5.33
2023-05-09T22:53:28.247Z,4.83
2023-05-09T22:55:54.761Z,4.23
2023-05-09T22:58:21.279Z,4.80
2023-05-09T23:00:47.844Z,4.43
2023-05-09T23:03:14.379Z,4.60
2023-05-09T23:05:41.564Z,4.90
2023-05-09T23:08:08.271Z,5.23
2023-05-09T23:10:34.737Z,4.83
2023-05-09T23:13:01.187Z,4.90
2023-05-09T23:15:27.708Z,8.70
2023-05-09T23:17:54.295Z,5.53
2023-05-09T23:20:21.056Z,4.53
2023-05-09T23:22:47.436Z,4.80
2023-05-09T23:25:13.760Z,5.00
2023-05-09T23:27:40.790Z,4.50
2023-05-09T23:30:10.822Z,4.90
2023-05-09T23:32:37.277Z,4.97
2023-05-09T23:35:04.258Z,5.80
2023-05-09T23:37:30.653Z,5.20
2023-05-09T23:39:58.103Z,5.00
2023-05-09T23:42:24.579Z,5.43
2023-05-09T23:44:51.380Z,5.40
2023-05-09T23:47:17.757Z,6.30
2023-05-09T23:49:44.329Z,6.23
2023-05-09T23:52:10.801Z,7.23
2023-05-09T23:54:37.253Z,6.20
2023-05-09T23:57:04.147Z,6.63
2023-05-09T23:59:30.545Z,6.50
